sensor_id;sensor_type;location;lat;lon;timestamp;P1;durP1;ratioP1;P2;durP2;ratioP2
5871;SDS011;2962;51.312;7.378;2023-08-12T00:00:00;50.00;;;36.80;;
5871;SDS011;2962;51.312;7.378;2023-08-12T00:02:36;56.37;;;36.00;;
5871;SDS011;2962;51.312;7.378;2023-08-12T00:05:02;52.07;;;35.10;;
5871;SDS011;2962;51.312;7.378;2023-08-12T00:07:28;54.87;;;35.33;;
5871;SDS011;2962;51.312;7.378;2023-08-12T00:09:54;49.53;;;34.33;;
5871;SDS011;2962;51.312;7.378;2023-08-12T00:12:21;47.50;;;34.40;;
5871;SDS011;2962;51.312;7.378;2023-08-12T00:14:46;58.93;;;35.80;;
5871;SDS011;2962;51.312;7.378;2023-08-12T00:17:12;46.17;;;33.27;;
5871;SDS011;2962;51.312;7.378;2023-08-12T00:19:37;46.60;;;33.67;;
5871;SDS011;2962;51.312;7.378;2023-08-12T00:22:02;51.73;;;34.90;;
5871;SDS011;2962;51.312;7.378;2023-08-12T00:24:29;51.10;;;36.20;;
5871;SDS011;2962;51.312;7.378;2023-08-12T00:26:55;51.37;;;35.00;;
5871;SDS011;2962;51.312;7.378;2023-08-12T00:29:20;53.47;;;34.97;;
5871;SDS011;2962;51.312;7.378;2023-08-12T00:31:46;54.47;;;34.93;;
5871;SDS011;2962;51.312;7.378;2023-08-12T00:34:11;50.00;;;32.87;;
5871;SDS011;2962;51.312;7.378;2023-08-12T00:36:37;50.73;;;33.17;;
5871;SDS011;2962;51.312;7.378;2023-08-12T00:39:02;52.03;;;33.30;;
5871;SDS011;2962;51.312;7.378;2023-08-12T00:41:28;47.63;;;30.60;;
5871;SDS011;2962;51.312;7.378;2023-08-12T00:43:54;39.73;;;27.30;;
5871;SDS011;2962;51.312;7.378;2023-08-12T00:46:19;42.50;;;30.33;;
5871;SDS011;2962;51.312;7.378;2023-08-12T00:48:45;38.80;;;28.10;;
5871;SDS011;2962;51.312;7.378;2023-08-12T00:51:10;39.20;;;25.70;;
5871;SDS011;2962;51.312;7.378;2023-08-12T00:53:35;38.00;;;26.07;;
5871;SDS011;2962;51.312;7.378;2023-08-12T00:56:01;38.63;;;27.30;;
5871;SDS011;2962;51.312;7.378;2023-08-12T00:58:27;36.90;;;24.73;;
5871;SDS011;2962;51.312;7.378;2023-08-12T01:00:52;43.87;;;27.80;;
5871;SDS011;2962;51.312;7.378;2023-08-12T01:03:18;36.37;;;26.20;;
5871;SDS011;2962;51.312;7.378;2023-08-12T01:05:44;33.97;;;25.00;;
5871;SDS011;2962;51.312;7.378;2023-08-12T01:08:11;35.03;;;26.33;;
5871;SDS011;2962;51.312;7.378;2023-08-12T01:10:37;40.67;;;28.47;;
5871;SDS011;2962;51.312;7.378;2023-08-12T01:13:19;44.63;;;30.20;;
5871;SDS011;2962;51.312;7.378;2023-08-12T01:15:57;48.27;;;31.50;;
5871;SDS011;2962;51.312;7.378;2023-08-12T01:18:26;58.77;;;33.97;;
5871;SDS011;2962;51.312;7.378;2023-08-12T01:20:52;69.63;;;31.40;;
5871;SDS011;2962;51.312;7.378;2023-08-12T01:23:18;461.43;;;47.00;;
5871;SDS011;2962;51.312;7.378;2023-08-12T01:25:45;674.30;;;55.13;;
5871;SDS011;2962;51.312;7.378;2023-08-12T01:28:10;213.33;;;40.00;;
5871;SDS011;2962;51.312;7.378;2023-08-12T01:30:36;848.03;;;63.70;;
5871;SDS011;2962;51.312;7.378;2023-08-12T01:33:10;555.87;;;48.23;;
5871;SDS011;2962;51.312;7.378;2023-08-12T01:35:43;54.80;;;34.53;;
5871;SDS011;2962;51.312;7.378;2023-08-12T01:38:20;68.80;;;36.50;;
5871;SDS011;2962;51.312;7.378;2023-08-12T01:40:49;76.13;;;40.50;;
5871;SDS011;2962;51.312;7.378;2023-08-12T01:43:15;66.93;;;37.47;;
5871;SDS011;2962;51.312;7.378;2023-08-12T01:45:41;68.60;;;38.97;;
5871;SDS011;2962;51.312;7.378;2023-08-12T01:48:07;65.27;;;37.00;;
5871;SDS011;2962;51.312;7.378;2023-08-12T01:50:32;91.13;;;40.87;;
5871;SDS011;2962;51.312;7.378;2023-08-12T01:52:57;82.50;;;39.30;;
5871;SDS011;2962;51.312;7.378;2023-08-12T01:55:23;71.60;;;39.60;;
5871;SDS011;2962;51.312;7.378;2023-08-12T01:57:48;76.30;;;38.37;;
5871;SDS011;2962;51.312;7.378;2023-08-12T02:00:14;68.27;;;36.00;;
5871;SDS011;2962;51.312;7.378;2023-08-12T02:02:40;78.30;;;40.50;;
5871;SDS011;2962;51.312;7.378;2023-08-12T02:05:05;77.40;;;41.00;;
5871;SDS011;2962;51.312;7.378;2023-08-12T02:07:31;79.20;;;40.47;;
5871;SDS011;2962;51.312;7.378;2023-08-12T02:09:56;82.03;;;42.50;;
5871;SDS011;2962;51.312;7.378;2023-08-12T02:12:21;81.30;;;40.80;;
5871;SDS011;2962;51.312;7.378;2023-08-12T02:14:47;72.13;;;39.93;;
5871;SDS011;2962;51.312;7.378;2023-08-12T02:17:12;73.03;;;41.40;;
5871;SDS011;2962;51.312;7.378;2023-08-12T02:19:37;78.13;;;38.10;;
5871;SDS011;2962;51.312;7.378;2023-08-12T02:22:03;77.77;;;38.40;;
5871;SDS011;2962;51.312;7.378;2023-08-12T02:24:28;56.10;;;35.37;;
5871;SDS011;2962;51.312;7.378;2023-08-12T02:26:53;59.60;;;33.37;;
5871;SDS011;2962;51.312;7.378;2023-08-12T02:29:19;59.87;;;32.47;;
5871;SDS011;2962;51.312;7.378;2023-08-12T02:31:44;58.70;;;34.30;;
5871;SDS011;2962;51.312;7.378;2023-08-12T02:34:09;56.30;;;33.80;;
5871;SDS011;2962;51.312;7.378;2023-08-12T02:36:35;54.27;;;34.67;;
5871;SDS011;2962;51.312;7.378;2023-08-12T02:39:00;53.47;;;30.83;;
5871;SDS011;2962;51.312;7.378;2023-08-12T02:41:26;48.87;;;30.07;;
5871;SDS011;2962;51.312;7.378;2023-08-12T02:43:51;61.00;;;33.20;;
5871;SDS011;2962;51.312;7.378;2023-08-12T02:46:16;54.50;;;32.10;;
5871;SDS011;2962;51.312;7.378;2023-08-12T02:48:43;53.70;;;30.60;;
5871;SDS011;2962;51.312;7.378;2023-08-12T02:51:08;53.90;;;31.20;;
5871;SDS011;2962;51.312;7.378;2023-08-12T02:53:33;56.67;;;31.70;;
5871;SDS011;2962;51.312;7.378;2023-08-12T02:55:59;61.50;;;31.80;;
5871;SDS011;2962;51.312;7.378;2023-08-12T02:58:24;47.37;;;29.30;;
5871;SDS011;2962;51.312;7.378;2023-08-12T03:00:49;49.83;;;29.70;;
5871;SDS011;2962;51.312;7.378;2023-08-12T03:03:14;45.17;;;28.40;;
5871;SDS011;2962;51.312;7.378;2023-08-12T03:05:40;50.33;;;28.70;;
5871;SDS011;2962;51.312;7.378;2023-08-12T03:08:06;47.17;;;30.30;;
5871;SDS011;2962;51.312;7.378;2023-08-12T03:10:32;53.33;;;29.57;;
5871;SDS011;2962;51.312;7.378;2023-08-12T03:12:58;50.03;;;29.10;;
5871;SDS011;2962;51.312;7.378;2023-08-12T03:15:24;50.43;;;29.50;;
5871;SDS011;2962;51.312;7.378;2023-08-12T03:17:49;46.57;;;28.80;;
5871;SDS011;2962;51.312;7.378;2023-08-12T03:20:14;48.70;;;30.27;;
5871;SDS011;2962;51.312;7.378;2023-08-12T03:22:40;51.80;;;29.30;;
5871;SDS011;2962;51.312;7.378;2023-08-12T03:25:05;48.30;;;28.90;;
5871;SDS011;2962;51.312;7.378;2023-08-12T03:27:31;47.10;;;28.70;;
5871;SDS011;2962;51.312;7.378;2023-08-12T03:29:56;40.50;;;26.93;;
5871;SDS011;2962;51.312;7.378;2023-08-12T03:32:22;39.00;;;25.77;;
5871;SDS011;2962;51.312;7.378;2023-08-12T03:34:48;41.93;;;24.80;;
5871;SDS011;2962;51.312;7.378;2023-08-12T03:37:13;40.13;;;25.87;;
5871;SDS011;2962;51.312;7.378;2023-08-12T03:39:38;41.83;;;22.77;;
5871;SDS011;2962;51.312;7.378;2023-08-12T03:42:03;37.67;;;22.33;;
5871;SDS011;2962;51.312;7.378;2023-08-12T03:44:29;41.87;;;24.57;;
5871;SDS011;2962;51.312;7.378;2023-08-12T03:46:54;36.20;;;23.20;;
5871;SDS011;2962;51.312;7.378;2023-08-12T03:49:19;33.47;;;23.30;;
5871;SDS011;2962;51.312;7.378;2023-08-12T03:51:45;38.80;;;24.40;;
5871;SDS011;2962;51.312;7.378;2023-08-12T03:54:10;31.43;;;23.07;;
5871;SDS011;2962;51.312;7.378;2023-08-12T03:56:35;36.20;;;22.90;;
5871;SDS011;2962;51.312;7.378;2023-08-12T03:59:01;36.10;;;23.13;;
5871;SDS011;2962;51.312;7.378;2023-08-12T04:04:47;31.37;;;23.80;;
5871;SDS011;2962;51.312;7.378;2023-08-12T04:07:13;29.80;;;22.63;;
5871;SDS011;2962;51.312;7.378;2023-08-12T04:09:38;31.93;;;22.70;;
5871;SDS011;2962;51.312;7.378;2023-08-12T04:12:03;30.33;;;21.70;;
5871;SDS011;2962;51.312;7.378;2023-08-12T04:14:29;28.00;;;21.70;;
5871;SDS011;2962;51.312;7.378;2023-08-12T04:16:55;27.50;;;21.83;;
5871;SDS011;2962;51.312;7.378;2023-08-12T04:19:20;27.83;;;20.20;;
5871;SDS011;2962;51.312;7.378;2023-08-12T04:21:45;29.33;;;22.37;;
5871;SDS011;2962;51.312;7.378;2023-08-12T04:24:11;29.90;;;20.33;;
5871;SDS011;2962;51.312;7.378;2023-08-12T04:26:37;26.27;;;18.33;;
5871;SDS011;2962;51.312;7.378;2023-08-12T04:29:03;22.03;;;17.50;;
5871;SDS011;2962;51.312;7.378;2023-08-12T04:31:28;23.27;;;16.57;;
5871;SDS011;2962;51.312;7.378;2023-08-12T04:33:53;17.57;;;13.20;;
5871;SDS011;2962;51.312;7.378;2023-08-12T04:36:19;22.60;;;16.37;;
5871;SDS011;2962;51.312;7.378;2023-08-12T04:38:44;19.07;;;15.67;;
5871;SDS011;2962;51.312;7.378;2023-08-12T04:41:10;21.20;;;16.40;;
5871;SDS011;2962;51.312;7.378;2023-08-12T04:43:35;18.40;;;14.70;;
5871;SDS011;2962;51.312;7.378;2023-08-12T04:46:00;17.67;;;14.10;;
5871;SDS011;2962;51.312;7.378;2023-08-12T04:48:26;15.50;;;13.83;;
5871;SDS011;2962;51.312;7.378;2023-08-12T04:50:51;17.43;;;13.70;;
5871;SDS011;2962;51.312;7.378;2023-08-12T04:53:17;17.17;;;13.87;;
5871;SDS011;2962;51.312;7.378;2023-08-12T04:55:42;15.60;;;13.87;;
5871;SDS011;2962;51.312;7.378;2023-08-12T04:58:07;18.17;;;14.07;;
5871;SDS011;2962;51.312;7.378;2023-08-12T05:00:33;12.97;;;11.67;;
5871;SDS011;2962;51.312;7.378;2023-08-12T05:02:58;15.47;;;12.00;;
5871;SDS011;2962;51.312;7.378;2023-08-12T05:05:25;16.90;;;11.87;;
5871;SDS011;2962;51.312;7.378;2023-08-12T05:07:51;11.43;;;10.23;;
5871;SDS011;2962;51.312;7.378;2023-08-12T05:10:16;11.60;;;10.60;;
5871;SDS011;2962;51.312;7.378;2023-08-12T05:12:42;12.20;;;10.90;;
5871;SDS011;2962;51.312;7.378;2023-08-12T05:15:08;11.53;;;10.40;;
5871;SDS011;2962;51.312;7.378;2023-08-12T05:17:34;9.80;;;8.90;;
5871;SDS011;2962;51.312;7.378;2023-08-12T05:20:00;9.73;;;9.00;;
5871;SDS011;2962;51.312;7.378;2023-08-12T05:22:25;8.73;;;7.83;;
5871;SDS011;2962;51.312;7.378;2023-08-12T05:24:51;10.47;;;9.30;;
5871;SDS011;2962;51.312;7.378;2023-08-12T05:27:16;8.57;;;7.73;;
5871;SDS011;2962;51.312;7.378;2023-08-12T05:29:41;7.60;;;6.90;;
5871;SDS011;2962;51.312;7.378;2023-08-12T05:32:06;8.43;;;7.47;;
5871;SDS011;2962;51.312;7.378;2023-08-12T05:34:32;7.77;;;7.17;;
5871;SDS011;2962;51.312;7.378;2023-08-12T05:36:57;8.30;;;7.23;;
5871;SDS011;2962;51.312;7.378;2023-08-12T05:39:22;8.23;;;7.40;;
5871;SDS011;2962;51.312;7.378;2023-08-12T05:41:48;7.00;;;6.30;;
5871;SDS011;2962;51.312;7.378;2023-08-12T05:44:13;7.10;;;6.53;;
5871;SDS011;2962;51.312;7.378;2023-08-12T05:46:39;7.27;;;6.20;;
5871;SDS011;2962;51.312;7.378;2023-08-12T05:49:04;6.97;;;6.20;;
5871;SDS011;2962;51.312;7.378;2023-08-12T05:51:29;6.53;;;6.03;;
5871;SDS011;2962;51.312;7.378;2023-08-12T05:53:55;6.30;;;6.00;;
5871;SDS011;2962;51.312;7.378;2023-08-12T05:56:20;8.30;;;6.00;;
5871;SDS011;2962;51.312;7.378;2023-08-12T05:58:45;6.20;;;5.80;;
5871;SDS011;2962;51.312;7.378;2023-08-12T06:01:10;5.97;;;5.67;;
5871;SDS011;2962;51.312;7.378;2023-08-12T06:03:36;5.87;;;5.30;;
5871;SDS011;2962;51.312;7.378;2023-08-12T06:06:01;7.33;;;6.63;;
5871;SDS011;2962;51.312;7.378;2023-08-12T06:08:26;6.67;;;5.97;;
5871;SDS011;2962;51.312;7.378;2023-08-12T06:10:52;5.47;;;5.13;;
5871;SDS011;2962;51.312;7.378;2023-08-12T06:13:17;5.43;;;4.90;;
5871;SDS011;2962;51.312;7.378;2023-08-12T06:15:42;5.30;;;5.00;;
5871;SDS011;2962;51.312;7.378;2023-08-12T06:18:08;5.37;;;5.07;;
5871;SDS011;2962;51.312;7.378;2023-08-12T06:20:33;5.93;;;5.57;;
5871;SDS011;2962;51.312;7.378;2023-08-12T06:22:58;5.87;;;5.20;;
5871;SDS011;2962;51.312;7.378;2023-08-12T06:25:24;5.17;;;4.87;;
5871;SDS011;2962;51.312;7.378;2023-08-12T06:27:51;6.20;;;5.17;;
5871;SDS011;2962;51.312;7.378;2023-08-12T06:30:26;6.83;;;5.53;;
5871;SDS011;2962;51.312;7.378;2023-08-12T06:32:58;8.10;;;5.50;;
5871;SDS011;2962;51.312;7.378;2023-08-12T06:35:26;8.67;;;6.00;;
5871;SDS011;2962;51.312;7.378;2023-08-12T06:37:52;6.43;;;6.13;;
5871;SDS011;2962;51.312;7.378;2023-08-12T06:40:17;7.90;;;7.30;;
5871;SDS011;2962;51.312;7.378;2023-08-12T06:42:42;7.50;;;6.87;;
5871;SDS011;2962;51.312;7.378;2023-08-12T06:45:08;8.00;;;7.30;;
5871;SDS011;2962;51.312;7.378;2023-08-12T06:47:34;9.70;;;8.73;;
5871;SDS011;2962;51.312;7.378;2023-08-12T06:49:59;10.23;;;8.40;;
5871;SDS011;2962;51.312;7.378;2023-08-12T06:52:25;9.37;;;8.47;;
5871;SDS011;2962;51.312;7.378;2023-08-12T06:54:50;10.13;;;9.30;;
5871;SDS011;2962;51.312;7.378;2023-08-12T06:57:15;9.27;;;8.50;;
5871;SDS011;2962;51.312;7.378;2023-08-12T06:59:41;11.63;;;8.77;;
5871;SDS011;2962;51.312;7.378;2023-08-12T07:02:06;8.97;;;8.17;;
5871;SDS011;2962;51.312;7.378;2023-08-12T07:04:32;9.47;;;8.87;;
5871;SDS011;2962;51.312;7.378;2023-08-12T07:06:57;10.77;;;8.80;;
5871;SDS011;2962;51.312;7.378;2023-08-12T07:09:22;9.00;;;8.30;;
5871;SDS011;2962;51.312;7.378;2023-08-12T07:11:48;14.17;;;8.90;;
5871;SDS011;2962;51.312;7.378;2023-08-12T07:14:13;9.20;;;8.40;;
5871;SDS011;2962;51.312;7.378;2023-08-12T07:16:38;8.60;;;7.80;;
5871;SDS011;2962;51.312;7.378;2023-08-12T07:19:04;8.07;;;7.27;;
5871;SDS011;2962;51.312;7.378;2023-08-12T07:21:29;8.63;;;7.90;;
5871;SDS011;2962;51.312;7.378;2023-08-12T07:23:54;8.20;;;7.60;;
5871;SDS011;2962;51.312;7.378;2023-08-12T07:26:19;7.97;;;7.40;;
5871;SDS011;2962;51.312;7.378;2023-08-12T07:28:45;7.90;;;7.10;;
5871;SDS011;2962;51.312;7.378;2023-08-12T07:31:10;7.07;;;6.47;;
5871;SDS011;2962;51.312;7.378;2023-08-12T07:33:36;6.03;;;5.73;;
5871;SDS011;2962;51.312;7.378;2023-08-12T07:36:01;6.67;;;6.33;;
5871;SDS011;2962;51.312;7.378;2023-08-12T07:38:27;6.80;;;6.27;;
5871;SDS011;2962;51.312;7.378;2023-08-12T07:40:53;5.17;;;4.87;;
5871;SDS011;2962;51.312;7.378;2023-08-12T07:43:18;5.67;;;5.27;;
5871;SDS011;2962;51.312;7.378;2023-08-12T07:45:44;5.57;;;5.27;;
5871;SDS011;2962;51.312;7.378;2023-08-12T07:48:09;6.13;;;5.73;;
5871;SDS011;2962;51.312;7.378;2023-08-12T07:50:34;6.43;;;5.50;;
5871;SDS011;2962;51.312;7.378;2023-08-12T07:53:00;7.17;;;5.50;;
5871;SDS011;2962;51.312;7.378;2023-08-12T07:55:25;5.33;;;5.00;;
5871;SDS011;2962;51.312;7.378;2023-08-12T07:57:52;5.93;;;5.43;;
5871;SDS011;2962;51.312;7.378;2023-08-12T08:00:17;5.67;;;5.27;;
5871;SDS011;2962;51.312;7.378;2023-08-12T08:02:42;6.13;;;5.60;;
5871;SDS011;2962;51.312;7.378;2023-08-12T08:05:08;5.30;;;5.00;;
5871;SDS011;2962;51.312;7.378;2023-08-12T08:07:33;5.83;;;5.63;;
5871;SDS011;2962;51.312;7.378;2023-08-12T08:09:58;6.03;;;5.53;;
5871;SDS011;2962;51.312;7.378;2023-08-12T08:12:24;5.50;;;5.30;;
5871;SDS011;2962;51.312;7.378;2023-08-12T08:14:49;4.93;;;4.70;;
5871;SDS011;2962;51.312;7.378;2023-08-12T08:17:15;5.10;;;5.00;;
5871;SDS011;2962;51.312;7.378;2023-08-12T08:19:40;4.03;;;3.83;;
5871;SDS011;2962;51.312;7.378;2023-08-12T08:22:05;7.03;;;5.20;;
5871;SDS011;2962;51.312;7.378;2023-08-12T08:24:31;5.47;;;4.93;;
5871;SDS011;2962;51.312;7.378;2023-08-12T08:26:56;4.50;;;4.40;;
5871;SDS011;2962;51.312;7.378;2023-08-12T08:29:21;5.47;;;5.07;;
5871;SDS011;2962;51.312;7.378;2023-08-12T08:31:47;4.40;;;4.10;;
5871;SDS011;2962;51.312;7.378;2023-08-12T08:34:13;4.20;;;3.50;;
5871;SDS011;2962;51.312;7.378;2023-08-12T08:36:38;3.97;;;3.70;;
5871;SDS011;2962;51.312;7.378;2023-08-12T08:39:04;4.33;;;4.10;;
5871;SDS011;2962;51.312;7.378;2023-08-12T08:41:30;3.50;;;3.40;;
5871;SDS011;2962;51.312;7.378;2023-08-12T08:43:58;3.43;;;3.33;;
5871;SDS011;2962;51.312;7.378;2023-08-12T08:46:28;3.53;;;3.43;;
5871;SDS011;2962;51.312;7.378;2023-08-12T08:48:54;3.93;;;3.77;;
5871;SDS011;2962;51.312;7.378;2023-08-12T08:51:22;4.57;;;4.23;;
5871;SDS011;2962;51.312;7.378;2023-08-12T08:53:49;3.40;;;3.40;;
5871;SDS011;2962;51.312;7.378;2023-08-12T08:56:16;3.70;;;3.07;;
5871;SDS011;2962;51.312;7.378;2023-08-12T08:58:42;4.00;;;3.30;;
5871;SDS011;2962;51.312;7.378;2023-08-12T09:01:07;3.20;;;3.10;;
5871;SDS011;2962;51.312;7.378;2023-08-12T09:03:35;4.20;;;3.90;;
5871;SDS011;2962;51.312;7.378;2023-08-12T09:06:02;3.40;;;3.20;;
5871;SDS011;2962;51.312;7.378;2023-08-12T09:08:28;3.33;;;3.33;;
5871;SDS011;2962;51.312;7.378;2023-08-12T09:10:56;2.80;;;2.70;;
5871;SDS011;2962;51.312;7.378;2023-08-12T09:13:22;2.63;;;2.50;;
5871;SDS011;2962;51.312;7.378;2023-08-12T09:15:48;2.57;;;2.53;;
5871;SDS011;2962;51.312;7.378;2023-08-12T09:18:13;2.67;;;2.67;;
5871;SDS011;2962;51.312;7.378;2023-08-12T09:20:40;2.53;;;2.53;;
5871;SDS011;2962;51.312;7.378;2023-08-12T09:23:06;2.83;;;2.73;;
5871;SDS011;2962;51.312;7.378;2023-08-12T09:25:33;2.83;;;2.63;;
5871;SDS011;2962;51.312;7.378;2023-08-12T09:28:00;3.37;;;3.17;;
5871;SDS011;2962;51.312;7.378;2023-08-12T09:30:29;3.57;;;3.47;;
5871;SDS011;2962;51.312;7.378;2023-08-12T09:33:02;2.87;;;2.80;;
5871;SDS011;2962;51.312;7.378;2023-08-12T09:35:32;3.03;;;2.83;;
5871;SDS011;2962;51.312;7.378;2023-08-12T09:37:58;3.50;;;3.23;;
5871;SDS011;2962;51.312;7.378;2023-08-12T09:40:24;4.93;;;3.27;;
5871;SDS011;2962;51.312;7.378;2023-08-12T09:42:49;2.63;;;2.53;;
5871;SDS011;2962;51.312;7.378;2023-08-12T09:45:15;2.60;;;2.50;;
5871;SDS011;2962;51.312;7.378;2023-08-12T09:47:42;2.40;;;2.30;;
5871;SDS011;2962;51.312;7.378;2023-08-12T09:50:09;2.23;;;2.13;;
5871;SDS011;2962;51.312;7.378;2023-08-12T09:52:35;1.90;;;1.90;;
5871;SDS011;2962;51.312;7.378;2023-08-12T09:55:00;1.60;;;1.60;;
5871;SDS011;2962;51.312;7.378;2023-08-12T09:57:30;1.60;;;1.50;;
5871;SDS011;2962;51.312;7.378;2023-08-12T09:59:58;1.73;;;1.73;;
5871;SDS011;2962;51.312;7.378;2023-08-12T10:02:25;1.67;;;1.67;;
5871;SDS011;2962;51.312;7.378;2023-08-12T10:04:53;3.80;;;1.70;;
5871;SDS011;2962;51.312;7.378;2023-08-12T10:07:21;2.47;;;2.37;;
5871;SDS011;2962;51.312;7.378;2023-08-12T10:09:48;1.83;;;1.83;;
5871;SDS011;2962;51.312;7.378;2023-08-12T10:12:14;1.43;;;1.37;;
5871;SDS011;2962;51.312;7.378;2023-08-12T10:14:40;2.07;;;1.80;;
5871;SDS011;2962;51.312;7.378;2023-08-12T10:17:06;1.60;;;1.50;;
5871;SDS011;2962;51.312;7.378;2023-08-12T10:19:34;2.07;;;1.97;;
5871;SDS011;2962;51.312;7.378;2023-08-12T10:22:00;1.53;;;1.50;;
5871;SDS011;2962;51.312;7.378;2023-08-12T10:24:28;1.50;;;1.40;;
5871;SDS011;2962;51.312;7.378;2023-08-12T10:26:54;1.90;;;1.80;;
5871;SDS011;2962;51.312;7.378;2023-08-12T10:29:22;3.47;;;1.67;;
5871;SDS011;2962;51.312;7.378;2023-08-12T10:31:49;1.90;;;1.80;;
5871;SDS011;2962;51.312;7.378;2023-08-12T10:34:21;3.50;;;2.00;;
5871;SDS011;2962;51.312;7.378;2023-08-12T10:36:50;2.13;;;2.10;;
5871;SDS011;2962;51.312;7.378;2023-08-12T10:39:25;2.23;;;2.23;;
5871;SDS011;2962;51.312;7.378;2023-08-12T10:41:52;1.90;;;1.80;;
5871;SDS011;2962;51.312;7.378;2023-08-12T10:44:20;1.50;;;1.50;;
5871;SDS011;2962;51.312;7.378;2023-08-12T10:46:51;1.50;;;1.50;;
5871;SDS011;2962;51.312;7.378;2023-08-12T10:49:18;1.93;;;1.77;;
5871;SDS011;2962;51.312;7.378;2023-08-12T10:51:45;1.90;;;1.80;;
5871;SDS011;2962;51.312;7.378;2023-08-12T11:02:26;2.00;;;2.00;;
5871;SDS011;2962;51.312;7.378;2023-08-12T11:05:14;2.60;;;2.60;;
5871;SDS011;2962;51.312;7.378;2023-08-12T11:10:40;2.43;;;2.43;;
5871;SDS011;2962;51.312;7.378;2023-08-12T11:13:00;2.00;;;1.70;;
5871;SDS011;2962;51.312;7.378;2023-08-12T11:15:34;2.10;;;2.00;;
5871;SDS011;2962;51.312;7.378;2023-08-12T11:18:07;1.97;;;1.87;;
5871;SDS011;2962;51.312;7.378;2023-08-12T11:20:35;2.60;;;2.20;;
5871;SDS011;2962;51.312;7.378;2023-08-12T11:23:01;2.10;;;2.10;;
5871;SDS011;2962;51.312;7.378;2023-08-12T11:25:28;2.47;;;2.27;;
5871;SDS011;2962;51.312;7.378;2023-08-12T11:27:54;2.13;;;2.03;;
5871;SDS011;2962;51.312;7.378;2023-08-12T11:30:20;1.97;;;1.87;;
5871;SDS011;2962;51.312;7.378;2023-08-12T11:32:49;1.83;;;1.73;;
5871;SDS011;2962;51.312;7.378;2023-08-12T11:35:16;2.63;;;1.90;;
5871;SDS011;2962;51.312;7.378;2023-08-12T11:37:44;1.80;;;1.70;;
5871;SDS011;2962;51.312;7.378;2023-08-12T11:40:11;1.50;;;1.40;;
5871;SDS011;2962;51.312;7.378;2023-08-12T11:42:40;3.13;;;1.60;;
5871;SDS011;2962;51.312;7.378;2023-08-12T11:45:09;2.77;;;1.47;;
5871;SDS011;2962;51.312;7.378;2023-08-12T11:47:36;1.73;;;1.73;;
5871;SDS011;2962;51.312;7.378;2023-08-12T11:50:02;3.70;;;1.60;;
5871;SDS011;2962;51.312;7.378;2023-08-12T11:52:31;1.90;;;1.90;;
5871;SDS011;2962;51.312;7.378;2023-08-12T11:54:57;2.33;;;2.20;;
5871;SDS011;2962;51.312;7.378;2023-08-12T11:57:24;2.30;;;2.30;;
5871;SDS011;2962;51.312;7.378;2023-08-12T11:59:50;2.40;;;2.40;;
5871;SDS011;2962;51.312;7.378;2023-08-12T12:02:15;1.90;;;1.90;;
5871;SDS011;2962;51.312;7.378;2023-08-12T12:04:41;9.83;;;2.20;;
5871;SDS011;2962;51.312;7.378;2023-08-12T12:07:24;2.27;;;2.17;;
5871;SDS011;2962;51.312;7.378;2023-08-12T12:09:51;2.80;;;2.60;;
5871;SDS011;2962;51.312;7.378;2023-08-12T12:12:18;2.37;;;2.37;;
5871;SDS011;2962;51.312;7.378;2023-08-12T12:14:47;2.53;;;2.27;;
5871;SDS011;2962;51.312;7.378;2023-08-12T12:17:14;2.30;;;2.17;;
5871;SDS011;2962;51.312;7.378;2023-08-12T12:19:40;2.00;;;2.00;;
5871;SDS011;2962;51.312;7.378;2023-08-12T12:22:05;2.83;;;2.60;;
5871;SDS011;2962;51.312;7.378;2023-08-12T12:24:31;3.00;;;2.80;;
5871;SDS011;2962;51.312;7.378;2023-08-12T12:26:57;11.20;;;3.30;;
5871;SDS011;2962;51.312;7.378;2023-08-12T12:29:22;3.00;;;2.90;;
5871;SDS011;2962;51.312;7.378;2023-08-12T12:31:48;3.57;;;3.47;;
5871;SDS011;2962;51.312;7.378;2023-08-12T12:34:13;2.73;;;2.63;;
5871;SDS011;2962;51.312;7.378;2023-08-12T12:36:39;5.37;;;1.97;;
5871;SDS011;2962;51.312;7.378;2023-08-12T12:39:05;1.80;;;1.10;;
5871;SDS011;2962;51.312;7.378;2023-08-12T12:41:32;1.27;;;0.83;;
5871;SDS011;2962;51.312;7.378;2023-08-12T12:43:59;1.50;;;1.50;;
5871;SDS011;2962;51.312;7.378;2023-08-12T12:46:27;1.17;;;1.17;;
5871;SDS011;2962;51.312;7.378;2023-08-12T12:48:53;10.80;;;1.87;;
5871;SDS011;2962;51.312;7.378;2023-08-12T12:51:19;47.63;;;5.63;;
5871;SDS011;2962;51.312;7.378;2023-08-12T12:53:44;1.27;;;1.27;;
5871;SDS011;2962;51.312;7.378;2023-08-12T12:56:09;1.27;;;1.27;;
5871;SDS011;2962;51.312;7.378;2023-08-12T12:58:35;1.53;;;1.53;;
5871;SDS011;2962;51.312;7.378;2023-08-12T13:01:04;2.00;;;1.10;;
5871;SDS011;2962;51.312;7.378;2023-08-12T13:03:30;1.03;;;1.03;;
5871;SDS011;2962;51.312;7.378;2023-08-12T13:05:56;1.03;;;1.03;;
5871;SDS011;2962;51.312;7.378;2023-08-12T13:08:28;1.77;;;1.20;;
5871;SDS011;2962;51.312;7.378;2023-08-12T13:11:00;1.20;;;1.20;;
5871;SDS011;2962;51.312;7.378;2023-08-12T13:13:31;1.50;;;1.40;;
5871;SDS011;2962;51.312;7.378;2023-08-12T13:15:57;3.30;;;1.20;;
5871;SDS011;2962;51.312;7.378;2023-08-12T13:18:22;2.03;;;1.80;;
5871;SDS011;2962;51.312;7.378;2023-08-12T13:20:48;1.20;;;1.20;;
5871;SDS011;2962;51.312;7.378;2023-08-12T13:23:13;1.20;;;1.20;;
5871;SDS011;2962;51.312;7.378;2023-08-12T13:25:39;1.27;;;1.17;;
5871;SDS011;2962;51.312;7.378;2023-08-12T13:28:05;1.20;;;1.20;;
5871;SDS011;2962;51.312;7.378;2023-08-12T13:30:30;1.30;;;1.30;;
5871;SDS011;2962;51.312;7.378;2023-08-12T13:32:56;1.20;;;1.20;;
5871;SDS011;2962;51.312;7.378;2023-08-12T13:35:22;1.13;;;1.10;;
5871;SDS011;2962;51.312;7.378;2023-08-12T13:37:48;0.67;;;0.67;;
5871;SDS011;2962;51.312;7.378;2023-08-12T13:40:14;2.77;;;0.90;;
5871;SDS011;2962;51.312;7.378;2023-08-12T13:42:40;3.60;;;1.50;;
5871;SDS011;2962;51.312;7.378;2023-08-12T13:45:07;1.00;;;0.90;;
5871;SDS011;2962;51.312;7.378;2023-08-12T13:47:33;1.33;;;1.33;;
5871;SDS011;2962;51.312;7.378;2023-08-12T13:49:59;3.23;;;0.90;;
5871;SDS011;2962;51.312;7.378;2023-08-12T13:52:24;4.23;;;1.63;;
5871;SDS011;2962;51.312;7.378;2023-08-12T13:54:49;7.20;;;1.60;;
5871;SDS011;2962;51.312;7.378;2023-08-12T13:57:15;1.70;;;1.70;;
5871;SDS011;2962;51.312;7.378;2023-08-12T13:59:40;2.17;;;2.17;;
5871;SDS011;2962;51.312;7.378;2023-08-12T14:02:08;3.00;;;2.70;;
5871;SDS011;2962;51.312;7.378;2023-08-12T14:04:34;2.70;;;2.60;;
5871;SDS011;2962;51.312;7.378;2023-08-12T14:07:00;3.10;;;3.10;;
5871;SDS011;2962;51.312;7.378;2023-08-12T14:09:25;2.90;;;2.90;;
5871;SDS011;2962;51.312;7.378;2023-08-12T14:11:50;3.63;;;3.53;;
5871;SDS011;2962;51.312;7.378;2023-08-12T14:14:15;5.13;;;4.93;;
5871;SDS011;2962;51.312;7.378;2023-08-12T14:16:41;5.27;;;5.17;;
5871;SDS011;2962;51.312;7.378;2023-08-12T14:19:07;5.10;;;4.90;;
5871;SDS011;2962;51.312;7.378;2023-08-12T14:21:32;5.93;;;5.53;;
5871;SDS011;2962;51.312;7.378;2023-08-12T14:23:57;4.90;;;4.73;;
5871;SDS011;2962;51.312;7.378;2023-08-12T14:26:23;5.30;;;4.90;;
5871;SDS011;2962;51.312;7.378;2023-08-12T14:28:48;7.60;;;6.90;;
5871;SDS011;2962;51.312;7.378;2023-08-12T14:31:13;5.93;;;5.63;;
5871;SDS011;2962;51.312;7.378;2023-08-12T14:33:38;6.70;;;6.37;;
5871;SDS011;2962;51.312;7.378;2023-08-12T14:36:04;15.37;;;13.87;;
5871;SDS011;2962;51.312;7.378;2023-08-12T14:38:31;105.90;;;11.20;;
5871;SDS011;2962;51.312;7.378;2023-08-12T14:40:57;8.07;;;7.50;;
5871;SDS011;2962;51.312;7.378;2023-08-12T14:43:23;9.20;;;5.93;;
5871;SDS011;2962;51.312;7.378;2023-08-12T14:45:48;5.23;;;5.03;;
5871;SDS011;2962;51.312;7.378;2023-08-12T14:48:13;4.63;;;4.30;;
5871;SDS011;2962;51.312;7.378;2023-08-12T14:50:40;3.67;;;3.57;;
5871;SDS011;2962;51.312;7.378;2023-08-12T14:53:06;3.70;;;3.70;;
5871;SDS011;2962;51.312;7.378;2023-08-12T14:55:32;3.57;;;3.47;;
5871;SDS011;2962;51.312;7.378;2023-08-12T14:57:57;3.53;;;3.47;;
5871;SDS011;2962;51.312;7.378;2023-08-12T15:00:22;4.10;;;4.00;;
5871;SDS011;2962;51.312;7.378;2023-08-12T15:02:48;6.83;;;6.43;;
5871;SDS011;2962;51.312;7.378;2023-08-12T15:05:13;3.83;;;3.83;;
5871;SDS011;2962;51.312;7.378;2023-08-12T15:07:38;5.50;;;4.00;;
5871;SDS011;2962;51.312;7.378;2023-08-12T15:10:04;4.03;;;3.90;;
5871;SDS011;2962;51.312;7.378;2023-08-12T15:12:30;5.70;;;3.23;;